createdAt,value
2019-02-14T00:00:39.382Z,81.45
2019-02-14T00:03:08.270Z,81.95
2019-02-14T00:05:36.855Z,81.62
2019-02-14T00:08:05.438Z,81.37
2019-02-14T00:10:34.025Z,81.30
2019-02-14T00:13:02.607Z,81.11
2019-02-14T00:15:31.194Z,81.22
2019-02-14T00:18:00.439Z,81.18
2019-02-14T00:20:29.021Z,81.25
2019-02-14T00:22:57.609Z,80.97
2019-02-14T00:25:26.227Z,81.84
2019-02-14T00:27:54.815Z,82.40
2019-02-14T00:30:23.392Z,82.22
2019-02-14T00:32:51.979Z,82.25
2019-02-14T00:35:25.198Z,82.07
2019-02-14T00:37:51.663Z,81.83
2019-02-14T00:40:20.248Z,81.40
2019-02-14T00:42:48.905Z,81.63
2019-02-14T00:45:17.569Z,81.32
2019-02-14T00:47:46.167Z,81.15
2019-02-14T00:50:14.779Z,81.63
2019-02-14T00:52:43.369Z,81.62
2019-02-14T00:55:12.540Z,82.75
2019-02-14T00:57:41.124Z,82.17
2019-02-14T01:00:11.516Z,82.41
2019-02-14T01:02:40.151Z,83.07
2019-02-14T01:05:10.123Z,82.94
2019-02-14T01:07:38.903Z,82.98
2019-02-14T01:10:07.785Z,82.73
2019-02-14T01:12:36.444Z,82.03
2019-02-14T01:15:09.071Z,81.87
2019-02-14T01:17:37.655Z,81.18
2019-02-14T01:20:07.136Z,81.79
2019-02-14T01:22:35.772Z,81.27
2019-02-14T01:25:05.061Z,81.42
2019-02-14T01:27:33.645Z,81.37
2019-02-14T01:30:02.228Z,81.60
2019-02-14T01:32:30.833Z,81.88
2019-02-14T01:34:59.476Z,82.04
2019-02-14T01:37:28.056Z,82.69
2019-02-14T01:39:58.622Z,81.27
2019-02-14T01:42:27.204Z,81.84
2019-02-14T01:44:55.790Z,81.99
2019-02-14T01:47:24.429Z,82.06
2019-02-14T01:49:53.060Z,82.35
2019-02-14T01:52:21.984Z,82.62
2019-02-14T01:54:50.607Z,82.80
2019-02-14T01:57:19.196Z,83.30
2019-02-14T01:59:47.774Z,82.87
2019-02-14T02:02:16.360Z,82.86
2019-02-14T02:04:44.950Z,83.29
2019-02-14T02:07:13.548Z,83.95
2019-02-14T02:09:42.144Z,84.01
2019-02-14T02:12:10.995Z,82.51
2019-02-14T02:14:39.680Z,82.53
2019-02-14T02:17:08.271Z,82.75
2019-02-14T02:19:36.861Z,83.04
2019-02-14T02:22:05.455Z,83.00
2019-02-14T02:24:34.035Z,82.98
2019-02-14T02:27:02.672Z,82.85
2019-02-14T02:29:31.255Z,82.72
2019-02-14T02:31:59.916Z,82.45
2019-02-14T02:34:28.566Z,82.21
2019-02-14T02:36:57.149Z,82.32
2019-02-14T02:39:25.746Z,82.32
2019-02-14T02:41:54.333Z,82.89
2019-02-14T02:44:22.922Z,83.20
2019-02-14T02:46:51.511Z,83.33
2019-02-14T02:49:20.102Z,82.91
2019-02-14T02:51:48.717Z,82.07
2019-02-14T02:54:17.350Z,81.83
2019-02-14T02:56:46.016Z,82.70
2019-02-14T02:59:14.603Z,82.08
2019-02-14T03:01:43.191Z,81.99
2019-02-14T03:04:11.778Z,82.01
2019-02-14T03:06:40.370Z,82.18
2019-02-14T03:09:09.522Z,82.02
2019-02-14T03:11:38.108Z,81.80
2019-02-14T03:14:06.695Z,82.05
2019-02-14T03:16:35.384Z,82.23
2019-02-14T03:19:03.970Z,81.67
2019-02-14T03:21:32.560Z,82.24
2019-02-14T03:24:01.143Z,82.32
2019-02-14T03:26:29.743Z,82.76
2019-02-14T03:28:58.332Z,82.81
2019-02-14T03:31:26.960Z,82.86
2019-02-14T03:33:55.533Z,82.77
2019-02-14T03:36:24.192Z,82.75
2019-02-14T03:38:52.782Z,82.37
2019-02-14T03:41:21.367Z,82.58
2019-02-14T03:43:49.950Z,83.23
2019-02-14T03:46:18.533Z,83.20
2019-02-14T03:48:47.113Z,82.60
2019-02-14T03:51:15.700Z,82.31
2019-02-14T03:53:44.285Z,82.70
2019-02-14T03:56:12.925Z,82.73
2019-02-14T03:58:41.551Z,82.32
2019-02-14T04:01:11.015Z,82.12
2019-02-14T04:03:39.599Z,82.86
2019-02-14T04:06:08.442Z,82.73
2019-02-14T04:08:37.026Z,82.65
2019-02-14T04:11:05.613Z,82.15
2019-02-14T04:13:34.191Z,81.59
2019-02-14T04:16:04.462Z,81.51
2019-02-14T04:18:33.462Z,81.80
2019-02-14T04:21:02.044Z,82.33
2019-02-14T04:23:30.660Z,82.00
2019-02-14T04:25:59.243Z,81.72
2019-02-14T04:28:27.832Z,81.90
2019-02-14T04:30:56.422Z,81.98
2019-02-14T04:33:25.016Z,82.37
2019-02-14T04:35:53.643Z,83.28
2019-02-14T04:38:22.244Z,82.83
2019-02-14T04:40:50.837Z,82.58
2019-02-14T04:43:19.420Z,82.55
2019-02-14T04:45:48.014Z,82.40
2019-02-14T04:48:16.607Z,82.48
2019-02-14T04:50:45.197Z,82.50
2019-02-14T04:53:13.787Z,82.31
2019-02-14T04:55:42.375Z,82.63
2019-02-14T04:58:12.112Z,82.82
2019-02-14T05:00:40.841Z,82.95
2019-02-14T05:03:10.615Z,83.32
2019-02-14T05:05:39.284Z,83.23
2019-02-14T05:08:08.775Z,83.17
2019-02-14T05:10:37.356Z,82.89
2019-02-14T05:13:05.938Z,82.68
2019-02-14T05:15:34.531Z,82.97
2019-02-14T05:18:03.112Z,83.04
2019-02-14T05:20:31.692Z,83.23
2019-02-14T05:23:00.278Z,83.26
2019-02-14T05:25:28.861Z,83.12
2019-02-14T05:27:57.443Z,82.91
2019-02-14T05:30:26.030Z,82.55
2019-02-14T05:32:54.612Z,82.20
2019-02-14T05:35:23.202Z,82.70
2019-02-14T05:37:51.789Z,82.39
2019-02-14T05:40:20.407Z,82.26
2019-02-14T05:42:49.068Z,82.06
2019-02-14T05:45:17.962Z,81.48
2019-02-14T05:47:46.570Z,82.01
2019-02-14T05:50:15.256Z,81.91
2019-02-14T05:52:43.843Z,81.69
2019-02-14T05:55:13.304Z,81.73
2019-02-14T05:57:41.895Z,81.91
2019-02-14T06:00:16.492Z,81.89
2019-02-14T06:02:45.082Z,81.87
2019-02-14T06:05:13.719Z,81.54
2019-02-14T06:07:42.368Z,81.62
2019-02-14T06:10:11.947Z,81.28
2019-02-14T06:12:40.539Z,81.26
2019-02-14T06:15:11.571Z,81.30
2019-02-14T06:17:40.162Z,81.08
2019-02-14T06:20:12.718Z,81.37
2019-02-14T06:22:41.300Z,81.52
2019-02-14T06:25:11.825Z,81.54
2019-02-14T06:27:40.424Z,82.02
2019-02-14T06:30:12.116Z,82.12
2019-02-14T06:32:40.703Z,82.14
2019-02-14T06:35:10.730Z,81.62
2019-02-14T06:37:39.313Z,81.67
2019-02-14T06:40:13.868Z,81.41
2019-02-14T06:42:42.454Z,81.55
2019-02-14T06:45:13.688Z,82.30
2019-02-14T06:47:42.276Z,82.34
2019-02-14T06:50:11.717Z,81.85
2019-02-14T06:52:40.525Z,81.63
2019-02-14T06:55:09.828Z,81.41
2019-02-14T06:57:38.413Z,81.11
2019-02-14T07:00:10.117Z,81.22
2019-02-14T07:02:38.705Z,80.73
2019-02-14T07:05:09.230Z,81.13
2019-02-14T07:07:37.816Z,82.02
2019-02-14T07:10:08.796Z,81.90
2019-02-14T07:12:37.428Z,80.96
2019-02-14T07:15:13.790Z,81.86
2019-02-14T07:17:42.369Z,81.74
2019-02-14T07:20:16.589Z,81.40
2019-02-14T07:22:45.178Z,81.23
2019-02-14T07:25:13.782Z,81.21
2019-02-14T07:27:42.367Z,81.55
2019-02-14T07:30:15.014Z,81.22
2019-02-14T07:32:43.599Z,81.04
2019-02-14T07:35:12.581Z,81.78
2019-02-14T07:37:41.169Z,81.38
2019-02-14T07:40:12.253Z,81.20
2019-02-14T07:42:40.846Z,82.14
2019-02-14T07:45:15.061Z,81.76
2019-02-14T07:47:43.642Z,80.75
2019-02-14T07:50:13.917Z,80.33
2019-02-14T07:52:42.503Z,80.42
2019-02-14T07:55:13.626Z,81.04
2019-02-14T07:57:42.278Z,80.45
2019-02-14T08:00:19.434Z,81.51
2019-02-14T08:02:48.012Z,80.69
2019-02-14T08:05:16.655Z,79.72
2019-02-14T08:07:45.244Z,79.05
2019-02-14T08:10:18.846Z,78.97
2019-02-14T08:12:47.427Z,80.60
2019-02-14T08:15:16.012Z,79.72
2019-02-14T08:17:44.635Z,79.62
2019-02-14T08:20:18.011Z,79.93
2019-02-14T08:22:46.590Z,80.46
2019-02-14T08:25:15.233Z,79.79
2019-02-14T08:27:43.812Z,79.49
2019-02-14T08:30:14.831Z,79.32
2019-02-14T08:32:43.464Z,78.79
2019-02-14T08:35:13.016Z,78.83
2019-02-14T08:37:45.547Z,79.47
2019-02-14T08:40:15.280Z,80.05
2019-02-14T08:42:43.866Z,79.81
2019-02-14T08:45:13.071Z,79.20
2019-02-14T08:47:41.655Z,79.20
2019-02-14T08:50:12.657Z,79.01
2019-02-14T08:52:41.242Z,78.81
2019-02-14T08:55:10.414Z,79.05
2019-02-14T08:57:38.992Z,78.92
2019-02-14T09:00:13.001Z,78.99
2019-02-14T09:02:41.608Z,79.23
2019-02-14T09:05:10.416Z,78.31
2019-02-14T09:07:39.008Z,78.29
2019-02-14T09:10:15.553Z,77.41
2019-02-14T09:12:44.145Z,77.22
2019-02-14T09:15:14.381Z,77.07
2019-02-14T09:17:42.964Z,76.58
2019-02-14T09:20:15.368Z,76.79
2019-02-14T09:22:43.992Z,76.73
2019-02-14T09:25:13.096Z,76.25
2019-02-14T09:27:41.684Z,75.56
2019-02-14T09:30:15.406Z,75.38
2019-02-14T09:32:44.124Z,74.85
2019-02-14T09:35:12.699Z,74.12
2019-02-14T09:37:41.276Z,73.45
2019-02-14T09:40:13.288Z,72.96
2019-02-14T09:42:41.870Z,72.90
2019-02-14T09:45:12.806Z,70.93
2019-02-14T09:47:41.391Z,71.86
2019-02-14T09:50:12.694Z,69.57
2019-02-14T09:52:41.883Z,69.17
2019-02-14T09:55:14.286Z,68.43
2019-02-14T09:57:42.867Z,69.02
2019-02-14T10:00:14.891Z,69.11
2019-02-14T10:02:43.476Z,68.85
2019-02-14T10:05:13.519Z,68.96
2019-02-14T10:07:42.111Z,68.49
2019-02-14T10:10:14.167Z,67.88
2019-02-14T10:12:42.751Z,67.23
2019-02-14T10:15:12.034Z,66.98
2019-02-14T10:17:40.625Z,67.07
2019-02-14T10:20:12.328Z,66.80
2019-02-14T10:22:40.912Z,65.61
2019-02-14T10:25:10.279Z,65.31
2019-02-14T10:27:38.977Z,65.96
2019-02-14T10:30:11.385Z,65.00
2019-02-14T10:32:39.971Z,66.14
2019-02-14T10:35:09.013Z,64.95
2019-02-14T10:37:37.586Z,65.38
2019-02-14T10:40:09.234Z,64.46
2019-02-14T10:42:37.818Z,66.21
2019-02-14T10:45:09.368Z,65.86
2019-02-14T10:47:37.954Z,64.62
2019-02-14T10:50:08.636Z,63.96
2019-02-14T10:52:37.219Z,64.65
2019-02-14T10:55:08.765Z,63.34
2019-02-14T10:57:37.388Z,63.97
2019-02-14T11:00:11.473Z,63.31
2019-02-14T11:02:40.055Z,62.79
2019-02-14T11:05:08.937Z,62.63
2019-02-14T11:07:37.526Z,60.54
2019-02-14T11:10:09.474Z,59.12
2019-02-14T11:12:38.064Z,59.40
2019-02-14T11:15:09.509Z,60.48
2019-02-14T11:17:38.095Z,59.89
2019-02-14T11:20:09.279Z,59.85
2019-02-14T11:22:37.866Z,59.39
2019-02-14T11:25:09.598Z,59.05
2019-02-14T11:27:38.180Z,60.08
2019-02-14T11:30:09.985Z,58.89
2019-02-14T11:32:38.574Z,60.08
2019-02-14T11:35:09.482Z,59.57
2019-02-14T11:37:38.062Z,59.95
2019-02-14T11:40:14.723Z,59.94
2019-02-14T11:42:43.308Z,58.94
2019-02-14T11:45:23.936Z,57.32
2019-02-14T11:47:52.528Z,58.07
2019-02-14T11:50:21.117Z,57.30
2019-02-14T11:52:49.727Z,59.84
2019-02-14T11:55:18.372Z,58.76
2019-02-14T11:57:46.954Z,58.02
2019-02-14T12:00:28.017Z,58.10
2019-02-14T12:02:56.718Z,57.52
2019-02-14T12:05:25.377Z,58.64
2019-02-14T12:07:53.967Z,59.28
2019-02-14T12:10:22.551Z,59.92
2019-02-14T12:12:51.136Z,60.09
2019-02-14T12:15:19.735Z,59.40
2019-02-14T12:17:48.326Z,59.87
2019-02-14T12:20:16.923Z,57.37
2019-02-14T12:22:47.085Z,59.28
2019-02-14T12:25:28.077Z,58.74
2019-02-14T12:27:56.665Z,60.00
2019-02-14T12:30:25.650Z,59.67
2019-02-14T12:32:54.250Z,59.46
2019-02-14T12:35:22.892Z,58.31
2019-02-14T12:37:51.475Z,58.48
2019-02-14T12:40:20.063Z,58.07
2019-02-14T12:42:48.650Z,58.14
2019-02-14T12:45:26.092Z,58.44
2019-02-14T12:47:54.891Z,58.88
2019-02-14T12:50:23.483Z,57.44
2019-02-14T12:52:52.068Z,56.79
2019-02-14T12:55:20.658Z,55.85
2019-02-14T12:57:49.251Z,56.64
2019-02-14T13:00:25.041Z,56.85
2019-02-14T13:02:53.625Z,57.00
2019-02-14T13:05:22.250Z,57.92
2019-02-14T13:07:50.884Z,58.65
2019-02-14T13:10:19.773Z,59.10
2019-02-14T13:12:48.356Z,57.13
2019-02-14T13:15:25.537Z,55.53
2019-02-14T13:17:54.133Z,55.74
2019-02-14T13:20:22.736Z,55.72
2019-02-14T13:22:51.339Z,56.00
2019-02-14T13:25:19.930Z,57.93
2019-02-14T13:27:48.526Z,56.15
2019-02-14T13:30:26.907Z,58.23
2019-02-14T13:32:55.498Z,55.03
2019-02-14T13:35:24.109Z,55.14
2019-02-14T13:37:52.698Z,54.01
2019-02-14T13:40:21.318Z,53.47
2019-02-14T13:42:49.911Z,52.69
2019-02-14T13:45:23.702Z,50.04
2019-02-14T13:47:52.301Z,50.04
2019-02-14T13:50:20.886Z,48.47
2019-02-14T13:52:49.478Z,48.82
2019-02-14T13:55:18.096Z,47.72
2019-02-14T13:57:46.684Z,48.12
2019-02-14T14:00:27.044Z,44.85
2019-02-14T14:02:55.648Z,46.72
2019-02-14T14:05:24.237Z,45.43
2019-02-14T14:07:52.837Z,46.30
2019-02-14T14:10:21.525Z,44.67
2019-02-14T14:12:50.122Z,44.96
2019-02-14T14:15:18.738Z,45.16
2019-02-14T14:17:47.329Z,44.84
2019-02-14T14:20:15.923Z,43.95
2019-02-14T14:22:44.520Z,43.32
2019-02-14T14:25:13.112Z,42.53
2019-02-14T14:27:41.704Z,42.41
2019-02-14T14:30:12.678Z,42.86
2019-02-14T14:32:41.275Z,43.00
2019-02-14T14:35:11.385Z,41.60
2019-02-14T14:37:40.086Z,40.86
2019-02-14T14:40:15.157Z,41.96
2019-02-14T14:42:51.097Z,42.97
2019-02-14T14:45:37.995Z,43.94
2019-02-14T14:48:08.589Z,40.59
2019-02-14T14:50:37.184Z,41.34
2019-02-14T14:53:07.521Z,40.92
2019-02-14T14:55:36.263Z,40.92
2019-02-14T14:58:04.848Z,40.71
2019-02-14T15:00:35.015Z,40.20
2019-02-14T15:03:03.610Z,39.95
2019-02-14T15:05:32.202Z,39.13
2019-02-14T15:08:00.801Z,40.26
2019-02-14T15:10:29.395Z,40.24
2019-02-14T15:12:57.982Z,38.83
2019-02-14T15:15:26.709Z,40.00
2019-02-14T15:17:55.302Z,39.44
2019-02-14T15:20:23.893Z,41.63
2019-02-14T15:22:52.487Z,41.63
2019-02-14T15:25:21.080Z,38.75
2019-02-14T15:27:49.673Z,38.52
2019-02-14T15:30:18.266Z,41.28
2019-02-14T15:32:46.855Z,38.45
2019-02-14T15:35:15.445Z,38.56
2019-02-14T15:37:46.616Z,38.38
2019-02-14T15:40:14.351Z,39.56
2019-02-14T15:42:42.966Z,38.42
2019-02-14T15:45:12.476Z,38.20
2019-02-14T15:47:41.056Z,38.08
2019-02-14T15:50:10.776Z,37.35
2019-02-14T15:52:39.367Z,38.35
2019-02-14T15:55:09.127Z,37.93
2019-02-14T15:57:37.718Z,36.33
2019-02-14T16:00:10.777Z,36.66
2019-02-14T16:02:39.564Z,38.07
2019-02-14T16:05:09.060Z,37.71
2019-02-14T16:07:39.510Z,39.00
2019-02-14T16:10:17.580Z,37.79
2019-02-14T16:12:41.174Z,37.01
2019-02-14T16:15:10.668Z,37.78
2019-02-14T16:17:39.252Z,38.04
2019-02-14T16:20:09.590Z,37.27
2019-02-14T16:22:40.189Z,38.48
2019-02-14T16:25:09.334Z,38.12
2019-02-14T16:27:37.933Z,38.53
2019-02-14T16:30:09.608Z,38.59
2019-02-14T16:32:38.229Z,40.19
2019-02-14T16:35:07.725Z,40.52
2019-02-14T16:37:36.314Z,41.40
2019-02-14T16:40:07.011Z,41.95
2019-02-14T16:42:35.598Z,41.90
2019-02-14T16:45:05.085Z,44.22
2019-02-14T16:47:34.102Z,44.78
2019-02-14T16:50:02.691Z,45.20
2019-02-14T16:52:31.280Z,44.30
2019-02-14T16:54:59.896Z,43.84
2019-02-14T16:57:28.498Z,46.04
2019-02-14T16:59:57.086Z,46.89
2019-02-14T17:02:25.661Z,48.05
2019-02-14T17:04:54.238Z,48.52
2019-02-14T17:07:22.853Z,49.57
2019-02-14T17:09:51.440Z,50.04
2019-02-14T17:12:20.023Z,51.10
2019-02-14T17:14:48.672Z,50.05
2019-02-14T17:17:17.264Z,49.84
2019-02-14T17:19:45.929Z,50.25
2019-02-14T17:22:32.522Z,50.71
2019-02-14T17:25:01.132Z,50.92
2019-02-14T17:27:32.579Z,51.44
2019-02-14T17:30:04.281Z,51.92
2019-02-14T17:32:33.956Z,53.52
2019-02-14T17:35:02.752Z,52.75
2019-02-14T17:37:31.337Z,52.33
2019-02-14T17:40:00.098Z,52.16
2019-02-14T17:45:45.859Z,54.41
2019-02-14T17:48:14.438Z,56.85
2019-02-14T17:50:43.115Z,57.49
2019-02-14T17:53:13.782Z,57.38
2019-02-14T17:55:42.409Z,57.81
2019-02-14T17:58:11.432Z,58.29
2019-02-14T18:00:41.588Z,59.01
2019-02-14T18:03:12.305Z,58.85
2019-02-14T18:05:41.012Z,59.07
2019-02-14T18:08:15.675Z,59.95
2019-02-14T18:10:55.699Z,60.22
2019-02-14T18:13:24.287Z,61.56
2019-02-14T18:15:52.902Z,62.15
2019-02-14T18:18:21.493Z,62.19
2019-02-14T18:21:45.509Z,62.60
2019-02-14T18:24:14.134Z,61.22
2019-02-14T18:30:15.539Z,62.53
2019-02-14T18:43:52.261Z,63.76
2019-02-14T18:46:26.420Z,62.53
2019-02-14T18:48:56.687Z,63.63
2019-02-14T18:51:25.284Z,63.67
2019-02-14T18:53:53.870Z,64.73
2019-02-14T18:56:22.531Z,65.46
2019-02-14T18:58:51.236Z,65.38
2019-02-14T19:01:19.820Z,65.22
2019-02-14T19:03:48.412Z,65.27
2019-02-14T19:06:17.142Z,65.52
2019-02-14T19:08:45.715Z,65.47
2019-02-14T19:11:15.428Z,65.32
2019-02-14T19:13:44.217Z,64.53
2019-02-14T19:16:12.952Z,64.72
2019-02-14T19:18:41.541Z,64.43
2019-02-14T19:21:10.139Z,64.99
2019-02-14T19:23:38.724Z,65.90
2019-02-14T19:26:07.923Z,66.10
2019-02-14T19:28:36.559Z,65.04
2019-02-14T19:31:05.159Z,65.04
2019-02-14T19:33:33.833Z,64.74
2019-02-14T19:36:02.557Z,64.99
2019-02-14T19:38:31.186Z,63.24
2019-02-14T19:40:59.778Z,62.91
2019-02-14T19:43:28.469Z,62.74
2019-02-14T19:45:57.101Z,63.12
2019-02-14T19:48:25.693Z,64.72
2019-02-14T19:50:54.292Z,65.00
2019-02-14T19:53:22.888Z,65.05
2019-02-14T19:55:51.479Z,65.54
2019-02-14T19:58:20.070Z,65.51
2019-02-14T20:00:48.690Z,65.49
2019-02-14T20:03:17.287Z,65.33
2019-02-14T20:05:45.875Z,66.49
2019-02-14T20:08:14.463Z,66.60
2019-02-14T20:10:43.052Z,67.06
2019-02-14T20:13:12.293Z,67.14
2019-02-14T20:15:40.896Z,68.02
2019-02-14T20:18:10.372Z,68.91
2019-02-14T20:20:38.975Z,69.49
2019-02-14T20:23:07.996Z,70.62
2019-02-14T20:25:36.587Z,69.87
2019-02-14T20:28:05.220Z,70.05
2019-02-14T20:30:33.888Z,69.53
2019-02-14T20:33:04.658Z,69.38
2019-02-14T20:35:32.799Z,69.39
2019-02-14T20:38:01.462Z,69.06
2019-02-14T20:40:31.973Z,69.09
2019-02-14T20:43:00.364Z,69.40
2019-02-14T20:45:29.987Z,69.29
2019-02-14T20:47:58.569Z,68.70
2019-02-14T20:50:27.168Z,69.32
2019-02-14T20:52:55.759Z,69.50
2019-02-14T20:55:26.111Z,69.77
2019-02-14T20:57:54.702Z,69.89
2019-02-14T21:00:34.151Z,70.29
2019-02-14T21:03:02.766Z,70.91
2019-02-14T21:05:31.393Z,70.55
2019-02-14T21:07:59.974Z,70.06
2019-02-14T21:10:28.561Z,70.77
2019-02-14T21:12:57.162Z,70.56
2019-02-14T21:15:25.885Z,70.95
2019-02-14T21:17:54.504Z,72.48
2019-02-14T21:20:23.117Z,73.51
2019-02-14T21:22:51.774Z,73.51
2019-02-14T21:25:23.020Z,73.96
2019-02-14T21:27:50.675Z,73.03
2019-02-14T21:30:20.684Z,72.46
2019-02-14T21:32:49.630Z,72.30
2019-02-14T21:35:18.249Z,72.07
2019-02-14T21:37:47.131Z,72.11
2019-02-14T21:40:19.879Z,72.43
2019-02-14T21:42:48.860Z,72.71
2019-02-14T21:45:18.293Z,72.38
2019-02-14T21:47:47.071Z,73.56
2019-02-14T21:50:16.147Z,73.60
2019-02-14T21:52:44.765Z,74.29
2019-02-14T21:55:14.297Z,73.00
2019-02-14T21:57:42.981Z,72.39
2019-02-14T22:00:18.329Z,72.14
2019-02-14T22:02:46.928Z,72.73
2019-02-14T22:05:15.521Z,73.45
2019-02-14T22:07:44.194Z,73.67
2019-02-14T22:10:13.725Z,73.77
2019-02-14T22:12:43.445Z,73.93
2019-02-14T22:15:18.730Z,73.84
2019-02-14T22:17:47.413Z,73.71
2019-02-14T22:20:16.046Z,73.62
2019-02-14T22:22:44.652Z,74.62
2019-02-14T22:25:13.274Z,74.57
2019-02-14T22:27:41.862Z,74.66
2019-02-14T22:30:14.090Z,74.55
2019-02-14T22:32:42.685Z,75.42
2019-02-14T22:35:11.755Z,75.71
2019-02-14T22:37:40.385Z,75.49
2019-02-14T22:40:10.804Z,74.97
2019-02-14T22:42:46.710Z,75.08
2019-02-14T22:45:13.441Z,74.99
2019-02-14T22:47:41.807Z,74.70
2019-02-14T22:50:10.838Z,74.15
2019-02-14T22:52:39.436Z,74.16
2019-02-14T22:55:10.478Z,73.92
2019-02-14T22:57:39.110Z,73.69
2019-02-14T23:00:13.394Z,73.86
2019-02-14T23:02:41.983Z,73.49
2019-02-14T23:05:11.700Z,73.87
2019-02-14T23:07:40.284Z,74.11
2019-02-14T23:10:10.103Z,74.33
2019-02-14T23:12:38.689Z,74.10
2019-02-14T23:15:08.177Z,74.42
2019-02-14T23:17:36.765Z,74.80
2019-02-14T23:20:06.679Z,73.37
2019-02-14T23:22:35.268Z,73.60
2019-02-14T23:25:04.261Z,73.52
2019-02-14T23:27:32.847Z,74.36
2019-02-14T23:30:02.485Z,73.91
2019-02-14T23:32:31.133Z,74.40
2019-02-14T23:34:59.732Z,73.98
2019-02-14T23:37:28.361Z,74.09
2019-02-14T23:39:56.985Z,74.74
2019-02-14T23:42:25.658Z,74.70
2019-02-14T23:44:54.274Z,74.77
2019-02-14T23:47:22.861Z,74.80
2019-02-14T23:49:51.443Z,75.43
2019-02-14T23:52:20.034Z,75.28
2019-02-14T23:54:48.627Z,75.40
2019-02-14T23:57:17.208Z,76.10
2019-02-14T23:59:45.794Z,76.45
